sensor_id;sensor_type;location;lat;lon;timestamp;temperature;humidity
33811;DHT22;20119;48.334;16.206;2023-01-28T00:00:51;-0.40;99.90
33811;DHT22;20119;48.334;16.206;2023-01-28T00:06:00;-0.40;99.90
33811;DHT22;20119;48.334;16.206;2023-01-28T00:08:27;-0.40;99.90
33811;DHT22;20119;48.334;16.206;2023-01-28T00:10:57;-0.40;99.90
33811;DHT22;20119;48.334;16.206;2023-01-28T00:18:33;-0.40;99.90
33811;DHT22;20119;48.334;16.206;2023-01-28T00:21:03;-0.40;99.90
33811;DHT22;20119;48.334;16.206;2023-01-28T00:23:32;-0.40;99.90
33811;DHT22;20119;48.334;16.206;2023-01-28T00:25:59;-0.50;99.90
33811;DHT22;20119;48.334;16.206;2023-01-28T00:28:27;-0.40;99.90
33811;DHT22;20119;48.334;16.206;2023-01-28T00:30:54;-0.40;99.90
33811;DHT22;20119;48.334;16.206;2023-01-28T00:33:21;-0.40;99.90
33811;DHT22;20119;48.334;16.206;2023-01-28T00:35:57;-0.40;99.90
33811;DHT22;20119;48.334;16.206;2023-01-28T00:38:48;-0.40;99.90
33811;DHT22;20119;48.334;16.206;2023-01-28T00:41:17;-0.40;99.90
33811;DHT22;20119;48.334;16.206;2023-01-28T00:46:22;-0.30;99.90
33811;DHT22;20119;48.334;16.206;2023-01-28T00:48:49;-0.40;99.90
33811;DHT22;20119;48.334;16.206;2023-01-28T00:51:18;-0.40;99.90
33811;DHT22;20119;48.334;16.206;2023-01-28T00:58:57;-0.40;99.90
33811;DHT22;20119;48.334;16.206;2023-01-28T01:01:26;-0.40;99.90
33811;DHT22;20119;48.334;16.206;2023-01-28T01:03:54;-0.40;99.90
33811;DHT22;20119;48.334;16.206;2023-01-28T01:06:27;-0.40;99.90
33811;DHT22;20119;48.334;16.206;2023-01-28T01:11:25;-0.40;99.90
33811;DHT22;20119;48.334;16.206;2023-01-28T01:19:04;-0.40;99.90
33811;DHT22;20119;48.334;16.206;2023-01-28T01:21:33;-0.40;99.90
33811;DHT22;20119;48.334;16.206;2023-01-28T01:24:00;-0.40;99.90
33811;DHT22;20119;48.334;16.206;2023-01-28T01:29:02;-0.40;99.90
33811;DHT22;20119;48.334;16.206;2023-01-28T01:31:29;-0.50;99.90
33811;DHT22;20119;48.334;16.206;2023-01-28T01:33:56;-0.40;99.90
33811;DHT22;20119;48.334;16.206;2023-01-28T01:36:24;-0.50;99.90
33811;DHT22;20119;48.334;16.206;2023-01-28T01:38:53;-0.40;99.90
33811;DHT22;20119;48.334;16.206;2023-01-28T01:46:34;-0.40;99.90
33811;DHT22;20119;48.334;16.206;2023-01-28T01:49:07;-0.40;99.90
33811;DHT22;20119;48.334;16.206;2023-01-28T01:51:39;-0.40;99.90
33811;DHT22;20119;48.334;16.206;2023-01-28T01:54:07;-0.30;99.90
33811;DHT22;20119;48.334;16.206;2023-01-28T01:56:37;-0.30;99.90
33811;DHT22;20119;48.334;16.206;2023-01-28T02:25:33;-0.30;99.90
33811;DHT22;20119;48.334;16.206;2023-01-28T02:28:16;-0.40;99.90
33811;DHT22;20119;48.334;16.206;2023-01-28T02:30:52;-0.40;99.90
33811;DHT22;20119;48.334;16.206;2023-01-28T02:33:28;-0.40;99.90
33811;DHT22;20119;48.334;16.206;2023-01-28T02:36:05;-0.40;99.90
33811;DHT22;20119;48.334;16.206;2023-01-28T02:38:40;-0.40;99.90
33811;DHT22;20119;48.334;16.206;2023-01-28T02:51:42;-0.30;99.90
33811;DHT22;20119;48.334;16.206;2023-01-28T02:54:13;-0.30;99.90
33811;DHT22;20119;48.334;16.206;2023-01-28T02:56:46;-0.30;99.90
33811;DHT22;20119;48.334;16.206;2023-01-28T02:59:19;-0.40;99.90
33811;DHT22;20119;48.334;16.206;2023-01-28T03:17:37;-0.30;99.90
33811;DHT22;20119;48.334;16.206;2023-01-28T03:20:27;-0.30;99.90
33811;DHT22;20119;48.334;16.206;2023-01-28T03:23:17;-0.30;99.90
33811;DHT22;20119;48.334;16.206;2023-01-28T03:26:04;-0.30;99.90
33811;DHT22;20119;48.334;16.206;2023-01-28T03:28:51;-0.30;99.90
33811;DHT22;20119;48.334;16.206;2023-01-28T03:31:37;-0.30;99.90
33811;DHT22;20119;48.334;16.206;2023-01-28T03:34:24;-0.30;99.90
33811;DHT22;20119;48.334;16.206;2023-01-28T03:52:42;-0.40;99.90
33811;DHT22;20119;48.334;16.206;2023-01-28T03:55:09;-0.40;99.90
33811;DHT22;20119;48.334;16.206;2023-01-28T03:57:39;-0.40;99.90
33811;DHT22;20119;48.334;16.206;2023-01-28T04:00:10;-0.30;99.90
33811;DHT22;20119;48.334;16.206;2023-01-28T04:02:37;-0.30;99.90
33811;DHT22;20119;48.334;16.206;2023-01-28T04:05:07;-0.30;99.90
33811;DHT22;20119;48.334;16.206;2023-01-28T04:07:38;-0.30;99.90
33811;DHT22;20119;48.334;16.206;2023-01-28T04:10:08;-0.40;99.90
33811;DHT22;20119;48.334;16.206;2023-01-28T04:12:35;-0.30;99.90
33811;DHT22;20119;48.334;16.206;2023-01-28T04:15:05;-0.40;99.90
33811;DHT22;20119;48.334;16.206;2023-01-28T04:17:42;-0.40;99.90
33811;DHT22;20119;48.334;16.206;2023-01-28T04:20:10;-0.30;99.90
33811;DHT22;20119;48.334;16.206;2023-01-28T04:25:14;-0.40;99.90
33811;DHT22;20119;48.334;16.206;2023-01-28T04:27:41;-0.40;99.90
33811;DHT22;20119;48.334;16.206;2023-01-28T04:30:09;-0.40;99.90
33811;DHT22;20119;48.334;16.206;2023-01-28T04:32:37;-0.40;99.90
33811;DHT22;20119;48.334;16.206;2023-01-28T04:37:36;-0.40;99.90
33811;DHT22;20119;48.334;16.206;2023-01-28T04:40:03;-0.40;99.90
33811;DHT22;20119;48.334;16.206;2023-01-28T04:45:08;-0.40;99.90
33811;DHT22;20119;48.334;16.206;2023-01-28T04:52:36;-0.50;99.90
33811;DHT22;20119;48.334;16.206;2023-01-28T04:55:04;-0.50;99.90
33811;DHT22;20119;48.334;16.206;2023-01-28T04:57:31;-0.50;99.90
33811;DHT22;20119;48.334;16.206;2023-01-28T04:59:58;-0.50;99.90
33811;DHT22;20119;48.334;16.206;2023-01-28T05:02:26;-0.50;99.90
33811;DHT22;20119;48.334;16.206;2023-01-28T05:04:53;-0.50;99.90
33811;DHT22;20119;48.334;16.206;2023-01-28T05:07:20;-0.50;99.90
33811;DHT22;20119;48.334;16.206;2023-01-28T05:12:22;-0.50;99.90
33811;DHT22;20119;48.334;16.206;2023-01-28T05:14:49;-0.50;99.90
33811;DHT22;20119;48.334;16.206;2023-01-28T05:17:17;-0.60;99.90
33811;DHT22;20119;48.334;16.206;2023-01-28T05:24:55;-0.60;99.90
33811;DHT22;20119;48.334;16.206;2023-01-28T05:27:23;-0.60;99.90
33811;DHT22;20119;48.334;16.206;2023-01-28T05:32:25;-0.60;99.90
33811;DHT22;20119;48.334;16.206;2023-01-28T05:34:52;-0.60;99.90
33811;DHT22;20119;48.334;16.206;2023-01-28T05:37:19;-0.60;99.90
33811;DHT22;20119;48.334;16.206;2023-01-28T05:39:46;-0.50;99.90
33811;DHT22;20119;48.334;16.206;2023-01-28T05:42:14;-0.50;99.90
33811;DHT22;20119;48.334;16.206;2023-01-28T05:44:43;-0.50;99.90
33811;DHT22;20119;48.334;16.206;2023-01-28T05:47:10;-0.50;99.90
33811;DHT22;20119;48.334;16.206;2023-01-28T05:49:37;-0.50;99.90
33811;DHT22;20119;48.334;16.206;2023-01-28T05:52:04;-0.40;99.90
33811;DHT22;20119;48.334;16.206;2023-01-28T05:57:06;-0.40;99.90
33811;DHT22;20119;48.334;16.206;2023-01-28T05:59:35;-0.50;99.90
33811;DHT22;20119;48.334;16.206;2023-01-28T06:02:02;-0.50;99.90
33811;DHT22;20119;48.334;16.206;2023-01-28T06:04:29;-0.50;99.90
33811;DHT22;20119;48.334;16.206;2023-01-28T06:06:57;-0.50;99.90
33811;DHT22;20119;48.334;16.206;2023-01-28T06:09:24;-0.40;99.90
33811;DHT22;20119;48.334;16.206;2023-01-28T06:11:50;-0.40;99.90
33811;DHT22;20119;48.334;16.206;2023-01-28T06:27:09;-0.40;99.90
33811;DHT22;20119;48.334;16.206;2023-01-28T06:32:11;-0.40;99.90
33811;DHT22;20119;48.334;16.206;2023-01-28T06:44:53;-0.50;99.90
33811;DHT22;20119;48.334;16.206;2023-01-28T06:47:20;-0.40;99.90
33811;DHT22;20119;48.334;16.206;2023-01-28T06:49:47;-0.50;99.90
33811;DHT22;20119;48.334;16.206;2023-01-28T06:52:17;-0.50;99.90
33811;DHT22;20119;48.334;16.206;2023-01-28T06:54:43;-0.50;99.90
33811;DHT22;20119;48.334;16.206;2023-01-28T06:59:46;-0.40;99.90
33811;DHT22;20119;48.334;16.206;2023-01-28T07:02:14;-0.40;99.90
33811;DHT22;20119;48.334;16.206;2023-01-28T07:04:41;-0.50;99.90
33811;DHT22;20119;48.334;16.206;2023-01-28T07:12:20;-0.40;99.90
33811;DHT22;20119;48.334;16.206;2023-01-28T07:14:47;-0.40;99.90
33811;DHT22;20119;48.334;16.206;2023-01-28T07:19:50;-0.30;99.90
33811;DHT22;20119;48.334;16.206;2023-01-28T07:22:20;-0.30;99.90
33811;DHT22;20119;48.334;16.206;2023-01-28T07:27:27;-0.40;99.90
33811;DHT22;20119;48.334;16.206;2023-01-28T07:29:54;-0.30;99.90
33811;DHT22;20119;48.334;16.206;2023-01-28T07:32:21;-0.40;99.90
33811;DHT22;20119;48.334;16.206;2023-01-28T07:34:48;-0.30;99.90
33811;DHT22;20119;48.334;16.206;2023-01-28T07:37:16;-0.30;99.90
33811;DHT22;20119;48.334;16.206;2023-01-28T07:42:37;-0.30;99.90
33811;DHT22;20119;48.334;16.206;2023-01-28T07:47:39;-0.20;99.90
33811;DHT22;20119;48.334;16.206;2023-01-28T07:50:08;-0.20;99.90
33811;DHT22;20119;48.334;16.206;2023-01-28T07:52:38;-0.20;99.90
33811;DHT22;20119;48.334;16.206;2023-01-28T08:00:20;-0.10;99.90
33811;DHT22;20119;48.334;16.206;2023-01-28T08:02:47;0.00;99.90
33811;DHT22;20119;48.334;16.206;2023-01-28T08:05:15;0.00;99.90
33811;DHT22;20119;48.334;16.206;2023-01-28T08:07:45;0.00;99.90
33811;DHT22;20119;48.334;16.206;2023-01-28T08:10:13;0.10;99.90
33811;DHT22;20119;48.334;16.206;2023-01-28T08:20:27;0.20;99.90
33811;DHT22;20119;48.334;16.206;2023-01-28T08:25:32;0.20;99.90
33811;DHT22;20119;48.334;16.206;2023-01-28T08:35:53;0.30;99.90
33811;DHT22;20119;48.334;16.206;2023-01-28T08:38:20;0.30;99.90
33811;DHT22;20119;48.334;16.206;2023-01-28T08:40:51;0.30;99.90
33811;DHT22;20119;48.334;16.206;2023-01-28T08:43:19;0.40;99.90
33811;DHT22;20119;48.334;16.206;2023-01-28T08:45:46;0.40;99.90
33811;DHT22;20119;48.334;16.206;2023-01-28T08:48:15;0.40;99.90
33811;DHT22;20119;48.334;16.206;2023-01-28T08:50:42;0.40;99.90
33811;DHT22;20119;48.334;16.206;2023-01-28T09:03:54;0.40;99.90
33811;DHT22;20119;48.334;16.206;2023-01-28T09:06:21;0.60;99.90
33811;DHT22;20119;48.334;16.206;2023-01-28T09:18:51;0.70;99.90
33811;DHT22;20119;48.334;16.206;2023-01-28T09:21:21;0.70;99.90
33811;DHT22;20119;48.334;16.206;2023-01-28T09:23:48;0.70;99.90
33811;DHT22;20119;48.334;16.206;2023-01-28T09:26:15;0.70;99.90
33811;DHT22;20119;48.334;16.206;2023-01-28T09:28:42;0.80;99.90
33811;DHT22;20119;48.334;16.206;2023-01-28T09:31:10;0.90;99.90
33811;DHT22;20119;48.334;16.206;2023-01-28T09:38:49;0.90;99.90
33811;DHT22;20119;48.334;16.206;2023-01-28T09:41:25;1.00;99.90
33811;DHT22;20119;48.334;16.206;2023-01-28T09:44:05;1.00;99.90
33811;DHT22;20119;48.334;16.206;2023-01-28T09:57:18;1.00;99.90
33811;DHT22;20119;48.334;16.206;2023-01-28T10:00:00;1.10;99.90
33811;DHT22;20119;48.334;16.206;2023-01-28T10:18:34;1.20;99.90
33811;DHT22;20119;48.334;16.206;2023-01-28T10:21:06;1.40;99.90
33811;DHT22;20119;48.334;16.206;2023-01-28T10:26:17;1.50;99.90
33811;DHT22;20119;48.334;16.206;2023-01-28T10:33:57;1.40;99.90
33811;DHT22;20119;48.334;16.206;2023-01-28T10:36:24;1.50;99.90
33811;DHT22;20119;48.334;16.206;2023-01-28T10:41:27;1.70;99.90
33811;DHT22;20119;48.334;16.206;2023-01-28T10:43:56;1.70;99.90
33811;DHT22;20119;48.334;16.206;2023-01-28T10:46:27;1.80;99.90
33811;DHT22;20119;48.334;16.206;2023-01-28T10:54:18;1.70;99.90
33811;DHT22;20119;48.334;16.206;2023-01-28T10:59:24;1.60;99.90
33811;DHT22;20119;48.334;16.206;2023-01-28T11:01:53;1.50;99.90
33811;DHT22;20119;48.334;16.206;2023-01-28T11:06:59;1.80;99.90
33811;DHT22;20119;48.334;16.206;2023-01-28T11:09:30;1.60;99.90
33811;DHT22;20119;48.334;16.206;2023-01-28T11:11:58;1.50;99.90
33811;DHT22;20119;48.334;16.206;2023-01-28T11:14:35;1.50;99.90
33811;DHT22;20119;48.334;16.206;2023-01-28T11:17:02;1.40;99.90
33811;DHT22;20119;48.334;16.206;2023-01-28T11:19:33;1.50;99.90
33811;DHT22;20119;48.334;16.206;2023-01-28T11:22:02;1.50;99.90
33811;DHT22;20119;48.334;16.206;2023-01-28T11:30:01;1.60;99.90
33811;DHT22;20119;48.334;16.206;2023-01-28T11:35:23;1.70;99.90
33811;DHT22;20119;48.334;16.206;2023-01-28T11:37:52;1.70;99.90
33811;DHT22;20119;48.334;16.206;2023-01-28T11:45:38;1.60;99.90
33811;DHT22;20119;48.334;16.206;2023-01-28T11:48:17;1.50;99.90
33811;DHT22;20119;48.334;16.206;2023-01-28T11:55:59;1.60;99.90
33811;DHT22;20119;48.334;16.206;2023-01-28T11:58:35;1.60;99.90
33811;DHT22;20119;48.334;16.206;2023-01-28T12:01:09;1.70;99.90
33811;DHT22;20119;48.334;16.206;2023-01-28T12:04:06;1.60;99.90
33811;DHT22;20119;48.334;16.206;2023-01-28T12:09:16;1.50;99.90
33811;DHT22;20119;48.334;16.206;2023-01-28T12:11:58;1.40;99.90
33811;DHT22;20119;48.334;16.206;2023-01-28T12:17:36;1.50;99.90
33811;DHT22;20119;48.334;16.206;2023-01-28T12:20:17;1.50;99.90
33811;DHT22;20119;48.334;16.206;2023-01-28T12:23:03;1.50;99.90
33811;DHT22;20119;48.334;16.206;2023-01-28T12:25:42;1.60;99.90
33811;DHT22;20119;48.334;16.206;2023-01-28T12:28:20;1.60;99.90
33811;DHT22;20119;48.334;16.206;2023-01-28T12:34:10;1.70;99.90
33811;DHT22;20119;48.334;16.206;2023-01-28T12:36:51;1.70;99.90
33811;DHT22;20119;48.334;16.206;2023-01-28T12:39:33;1.70;99.90
33811;DHT22;20119;48.334;16.206;2023-01-28T12:49:54;1.70;99.90
33811;DHT22;20119;48.334;16.206;2023-01-28T12:52:26;1.60;99.90
33811;DHT22;20119;48.334;16.206;2023-01-28T12:57:31;1.50;99.90
33811;DHT22;20119;48.334;16.206;2023-01-28T13:00:05;1.60;99.90
33811;DHT22;20119;48.334;16.206;2023-01-28T13:05:19;1.50;99.90
33811;DHT22;20119;48.334;16.206;2023-01-28T13:07:52;1.50;99.90
33811;DHT22;20119;48.334;16.206;2023-01-28T13:12:58;1.60;99.90
33811;DHT22;20119;48.334;16.206;2023-01-28T13:15:25;1.50;99.90
33811;DHT22;20119;48.334;16.206;2023-01-28T13:17:54;1.60;99.90
33811;DHT22;20119;48.334;16.206;2023-01-28T13:20:36;1.50;99.90
33811;DHT22;20119;48.334;16.206;2023-01-28T13:23:18;1.50;99.90
33811;DHT22;20119;48.334;16.206;2023-01-28T13:28:27;1.50;99.90
33811;DHT22;20119;48.334;16.206;2023-01-28T13:36:22;1.40;99.90
33811;DHT22;20119;48.334;16.206;2023-01-28T13:43:54;1.60;99.90
33811;DHT22;20119;48.334;16.206;2023-01-28T13:48:58;1.50;99.90
33811;DHT22;20119;48.334;16.206;2023-01-28T13:54:06;1.30;99.90
33811;DHT22;20119;48.334;16.206;2023-01-28T14:07:29;1.20;99.90
33811;DHT22;20119;48.334;16.206;2023-01-28T14:10:22;1.20;99.90
33811;DHT22;20119;48.334;16.206;2023-01-28T14:18:17;1.20;99.90
33811;DHT22;20119;48.334;16.206;2023-01-28T14:20:48;1.10;99.90
33811;DHT22;20119;48.334;16.206;2023-01-28T14:26:04;1.20;99.90
33811;DHT22;20119;48.334;16.206;2023-01-28T14:28:44;1.00;99.90
33811;DHT22;20119;48.334;16.206;2023-01-28T14:31:17;1.10;99.90
33811;DHT22;20119;48.334;16.206;2023-01-28T14:36:24;1.10;99.90
33811;DHT22;20119;48.334;16.206;2023-01-28T14:38:51;1.10;99.90
33811;DHT22;20119;48.334;16.206;2023-01-28T14:41:25;0.90;99.90
33811;DHT22;20119;48.334;16.206;2023-01-28T14:43:54;1.00;99.90
33811;DHT22;20119;48.334;16.206;2023-01-28T14:46:30;0.90;99.90
33811;DHT22;20119;48.334;16.206;2023-01-28T14:49:11;1.00;99.90
33811;DHT22;20119;48.334;16.206;2023-01-28T14:52:03;1.00;99.90
33811;DHT22;20119;48.334;16.206;2023-01-28T14:54:42;0.90;99.90
33811;DHT22;20119;48.334;16.206;2023-01-28T14:57:31;0.80;99.90
33811;DHT22;20119;48.334;16.206;2023-01-28T14:59:58;0.80;99.90
33811;DHT22;20119;48.334;16.206;2023-01-28T15:02:33;0.80;99.90
33811;DHT22;20119;48.334;16.206;2023-01-28T15:05:07;0.80;99.90
33811;DHT22;20119;48.334;16.206;2023-01-28T15:07:34;0.90;99.90
33811;DHT22;20119;48.334;16.206;2023-01-28T15:10:04;0.90;99.90
33811;DHT22;20119;48.334;16.206;2023-01-28T15:12:35;0.80;99.90
33811;DHT22;20119;48.334;16.206;2023-01-28T15:15:10;0.80;99.90
33811;DHT22;20119;48.334;16.206;2023-01-28T15:17:41;0.80;99.90
33811;DHT22;20119;48.334;16.206;2023-01-28T15:20:15;0.80;99.90
33811;DHT22;20119;48.334;16.206;2023-01-28T15:22:44;0.90;99.90
33811;DHT22;20119;48.334;16.206;2023-01-28T15:25:15;0.80;99.90
33811;DHT22;20119;48.334;16.206;2023-01-28T15:27:44;0.70;99.90
33811;DHT22;20119;48.334;16.206;2023-01-28T15:30:22;0.70;99.90
33811;DHT22;20119;48.334;16.206;2023-01-28T15:32:57;0.80;99.90
33811;DHT22;20119;48.334;16.206;2023-01-28T15:35:45;0.60;99.90
33811;DHT22;20119;48.334;16.206;2023-01-28T15:38:13;0.60;99.90
33811;DHT22;20119;48.334;16.206;2023-01-28T15:40:43;0.60;99.90
33811;DHT22;20119;48.334;16.206;2023-01-28T15:43:16;0.60;99.90
33811;DHT22;20119;48.334;16.206;2023-01-28T15:45:45;0.70;99.90
33811;DHT22;20119;48.334;16.206;2023-01-28T15:48:14;0.70;99.90
33811;DHT22;20119;48.334;16.206;2023-01-28T15:50:41;0.60;99.90
33811;DHT22;20119;48.334;16.206;2023-01-28T15:53:10;0.70;99.90
33811;DHT22;20119;48.334;16.206;2023-01-28T15:55:40;0.70;99.90
33811;DHT22;20119;48.334;16.206;2023-01-28T15:58:19;0.70;99.90
33811;DHT22;20119;48.334;16.206;2023-01-28T16:00:47;0.70;99.90
33811;DHT22;20119;48.334;16.206;2023-01-28T16:03:19;0.60;99.90
33811;DHT22;20119;48.334;16.206;2023-01-28T16:05:57;0.60;99.90
33811;DHT22;20119;48.334;16.206;2023-01-28T16:08:28;0.60;99.90
33811;DHT22;20119;48.334;16.206;2023-01-28T16:11:00;0.60;99.90
33811;DHT22;20119;48.334;16.206;2023-01-28T16:13:31;0.60;99.90
33811;DHT22;20119;48.334;16.206;2023-01-28T16:16:02;0.60;99.90
33811;DHT22;20119;48.334;16.206;2023-01-28T16:18:37;0.70;99.90
33811;DHT22;20119;48.334;16.206;2023-01-28T16:21:06;0.70;99.90
33811;DHT22;20119;48.334;16.206;2023-01-28T16:26:20;0.70;99.90
33811;DHT22;20119;48.334;16.206;2023-01-28T16:28:49;0.60;99.90
33811;DHT22;20119;48.334;16.206;2023-01-28T16:31:16;0.60;99.90
33811;DHT22;20119;48.334;16.206;2023-01-28T16:38:54;0.60;99.90
33811;DHT22;20119;48.334;16.206;2023-01-28T16:41:24;0.60;99.90
33811;DHT22;20119;48.334;16.206;2023-01-28T16:43:52;0.60;99.90
33811;DHT22;20119;48.334;16.206;2023-01-28T16:46:19;0.60;99.90
33811;DHT22;20119;48.334;16.206;2023-01-28T16:48:47;0.50;99.90
33811;DHT22;20119;48.334;16.206;2023-01-28T16:51:15;0.50;99.90
33811;DHT22;20119;48.334;16.206;2023-01-28T16:53:43;0.50;99.90
33811;DHT22;20119;48.334;16.206;2023-01-28T16:56:13;0.50;99.90
33811;DHT22;20119;48.334;16.206;2023-01-28T16:58:40;0.60;99.90
33811;DHT22;20119;48.334;16.206;2023-01-28T17:01:09;0.50;99.90
33811;DHT22;20119;48.334;16.206;2023-01-28T17:03:37;0.50;99.90
33811;DHT22;20119;48.334;16.206;2023-01-28T17:06:06;0.50;99.90
33811;DHT22;20119;48.334;16.206;2023-01-28T17:08:33;0.60;99.90
33811;DHT22;20119;48.334;16.206;2023-01-28T17:11:00;0.50;99.90
33811;DHT22;20119;48.334;16.206;2023-01-28T17:13:27;0.50;99.90
33811;DHT22;20119;48.334;16.206;2023-01-28T17:15:55;0.50;99.90
33811;DHT22;20119;48.334;16.206;2023-01-28T17:18:23;0.50;99.90
33811;DHT22;20119;48.334;16.206;2023-01-28T17:20:50;0.50;99.90
33811;DHT22;20119;48.334;16.206;2023-01-28T17:23:18;0.60;99.90
33811;DHT22;20119;48.334;16.206;2023-01-28T17:25:48;0.60;99.90
33811;DHT22;20119;48.334;16.206;2023-01-28T17:28:15;0.60;99.90
33811;DHT22;20119;48.334;16.206;2023-01-28T17:30:43;0.60;99.90
33811;DHT22;20119;48.334;16.206;2023-01-28T17:33:09;0.60;99.90
33811;DHT22;20119;48.334;16.206;2023-01-28T17:35:38;0.70;99.90
33811;DHT22;20119;48.334;16.206;2023-01-28T17:38:05;0.60;99.90
33811;DHT22;20119;48.334;16.206;2023-01-28T17:40:33;0.60;99.90
33811;DHT22;20119;48.334;16.206;2023-01-28T17:43:00;0.60;99.90
33811;DHT22;20119;48.334;16.206;2023-01-28T17:45:29;0.60;99.90
33811;DHT22;20119;48.334;16.206;2023-01-28T17:47:56;0.60;99.90
33811;DHT22;20119;48.334;16.206;2023-01-28T17:50:23;0.70;99.90
33811;DHT22;20119;48.334;16.206;2023-01-28T17:52:54;0.60;99.90
33811;DHT22;20119;48.334;16.206;2023-01-28T17:55:21;0.70;99.90
33811;DHT22;20119;48.334;16.206;2023-01-28T17:57:49;0.70;99.90
33811;DHT22;20119;48.334;16.206;2023-01-28T18:02:51;0.70;99.90
33811;DHT22;20119;48.334;16.206;2023-01-28T18:05:19;0.70;99.90
33811;DHT22;20119;48.334;16.206;2023-01-28T18:07:46;0.70;99.90
33811;DHT22;20119;48.334;16.206;2023-01-28T18:10:16;0.70;99.90
33811;DHT22;20119;48.334;16.206;2023-01-28T18:12:43;0.70;99.90
33811;DHT22;20119;48.334;16.206;2023-01-28T18:15:10;0.80;99.90
33811;DHT22;20119;48.334;16.206;2023-01-28T18:17:38;0.80;99.90
33811;DHT22;20119;48.334;16.206;2023-01-28T18:20:05;0.80;99.90
33811;DHT22;20119;48.334;16.206;2023-01-28T18:22:32;0.80;99.90
33811;DHT22;20119;48.334;16.206;2023-01-28T18:24:59;0.80;99.90
33811;DHT22;20119;48.334;16.206;2023-01-28T18:27:27;0.80;99.90
33811;DHT22;20119;48.334;16.206;2023-01-28T18:29:54;0.70;99.90
33811;DHT22;20119;48.334;16.206;2023-01-28T18:32:22;0.80;99.90
33811;DHT22;20119;48.334;16.206;2023-01-28T18:34:50;0.80;99.90
33811;DHT22;20119;48.334;16.206;2023-01-28T18:37:17;0.80;99.90
33811;DHT22;20119;48.334;16.206;2023-01-28T18:39:44;0.70;99.90
33811;DHT22;20119;48.334;16.206;2023-01-28T18:42:11;0.70;99.90
33811;DHT22;20119;48.334;16.206;2023-01-28T18:47:15;0.80;99.90
33811;DHT22;20119;48.334;16.206;2023-01-28T18:49:42;0.80;99.90
33811;DHT22;20119;48.334;16.206;2023-01-28T18:52:09;0.80;99.90
33811;DHT22;20119;48.334;16.206;2023-01-28T18:54:36;0.80;99.90
33811;DHT22;20119;48.334;16.206;2023-01-28T18:57:03;0.70;99.90
33811;DHT22;20119;48.334;16.206;2023-01-28T18:59:30;0.80;99.90
33811;DHT22;20119;48.334;16.206;2023-01-28T19:04:34;0.80;99.90
33811;DHT22;20119;48.334;16.206;2023-01-28T19:07:03;0.80;99.90
33811;DHT22;20119;48.334;16.206;2023-01-28T19:09:33;0.80;99.90
33811;DHT22;20119;48.334;16.206;2023-01-28T19:12:00;0.80;99.90
33811;DHT22;20119;48.334;16.206;2023-01-28T19:14:28;0.80;99.90
33811;DHT22;20119;48.334;16.206;2023-01-28T19:19:31;0.80;99.90
33811;DHT22;20119;48.334;16.206;2023-01-28T19:21:59;0.80;99.90
33811;DHT22;20119;48.334;16.206;2023-01-28T19:24:26;0.80;99.90
33811;DHT22;20119;48.334;16.206;2023-01-28T19:26:53;0.80;99.90
33811;DHT22;20119;48.334;16.206;2023-01-28T19:29:20;0.80;99.90
33811;DHT22;20119;48.334;16.206;2023-01-28T19:31:50;0.80;99.90
33811;DHT22;20119;48.334;16.206;2023-01-28T19:34:17;0.80;99.90
33811;DHT22;20119;48.334;16.206;2023-01-28T19:36:44;0.80;99.90
33811;DHT22;20119;48.334;16.206;2023-01-28T19:39:13;0.80;99.90
33811;DHT22;20119;48.334;16.206;2023-01-28T19:41:43;0.80;99.90
33811;DHT22;20119;48.334;16.206;2023-01-28T19:44:10;0.80;99.90
33811;DHT22;20119;48.334;16.206;2023-01-28T19:46:38;0.80;99.90
33811;DHT22;20119;48.334;16.206;2023-01-28T19:49:06;0.80;99.90
33811;DHT22;20119;48.334;16.206;2023-01-28T19:54:12;0.80;99.90
33811;DHT22;20119;48.334;16.206;2023-01-28T19:56:39;0.80;99.90
33811;DHT22;20119;48.334;16.206;2023-01-28T20:01:41;0.70;99.90
33811;DHT22;20119;48.334;16.206;2023-01-28T20:06:40;0.80;99.90
33811;DHT22;20119;48.334;16.206;2023-01-28T20:09:14;0.80;99.90
33811;DHT22;20119;48.334;16.206;2023-01-28T20:14:19;0.80;99.90
33811;DHT22;20119;48.334;16.206;2023-01-28T20:16:46;0.80;99.90
33811;DHT22;20119;48.334;16.206;2023-01-28T20:19:15;0.80;99.90
33811;DHT22;20119;48.334;16.206;2023-01-28T20:21:43;0.80;99.90
33811;DHT22;20119;48.334;16.206;2023-01-28T20:24:11;0.80;99.90
33811;DHT22;20119;48.334;16.206;2023-01-28T20:29:16;0.70;99.90
33811;DHT22;20119;48.334;16.206;2023-01-28T20:47:18;0.80;99.90
33811;DHT22;20119;48.334;16.206;2023-01-28T20:49:45;0.70;99.90
33811;DHT22;20119;48.334;16.206;2023-01-28T20:52:12;0.70;99.90
33811;DHT22;20119;48.334;16.206;2023-01-28T20:54:39;0.70;99.90
33811;DHT22;20119;48.334;16.206;2023-01-28T20:57:06;0.70;99.90
33811;DHT22;20119;48.334;16.206;2023-01-28T21:04:45;0.70;99.90
33811;DHT22;20119;48.334;16.206;2023-01-28T21:07:11;0.70;99.90
33811;DHT22;20119;48.334;16.206;2023-01-28T21:09:39;0.70;99.90
33811;DHT22;20119;48.334;16.206;2023-01-28T21:12:06;0.70;99.90
33811;DHT22;20119;48.334;16.206;2023-01-28T21:14:33;0.70;99.90
33811;DHT22;20119;48.334;16.206;2023-01-28T21:17:00;0.70;99.90
33811;DHT22;20119;48.334;16.206;2023-01-28T21:19:27;0.70;99.90
33811;DHT22;20119;48.334;16.206;2023-01-28T21:21:57;0.70;99.90
33811;DHT22;20119;48.334;16.206;2023-01-28T21:24:24;0.70;99.90
33811;DHT22;20119;48.334;16.206;2023-01-28T21:26:51;0.70;99.90
33811;DHT22;20119;48.334;16.206;2023-01-28T21:37:06;0.60;99.90
33811;DHT22;20119;48.334;16.206;2023-01-28T21:39:33;0.60;99.90
33811;DHT22;20119;48.334;16.206;2023-01-28T21:42:03;0.60;99.90
33811;DHT22;20119;48.334;16.206;2023-01-28T21:44:30;0.60;99.90
33811;DHT22;20119;48.334;16.206;2023-01-28T21:49:32;0.60;99.90
33811;DHT22;20119;48.334;16.206;2023-01-28T21:57:11;0.60;99.90
33811;DHT22;20119;48.334;16.206;2023-01-28T21:59:38;0.60;99.90
33811;DHT22;20119;48.334;16.206;2023-01-28T22:02:08;0.60;99.90
33811;DHT22;20119;48.334;16.206;2023-01-28T22:20:08;0.60;99.90
33811;DHT22;20119;48.334;16.206;2023-01-28T22:25:10;0.50;99.90
33811;DHT22;20119;48.334;16.206;2023-01-28T22:27:37;0.60;99.90
33811;DHT22;20119;48.334;16.206;2023-01-28T22:30:05;0.60;99.90
33811;DHT22;20119;48.334;16.206;2023-01-28T22:37:41;0.60;99.90
33811;DHT22;20119;48.334;16.206;2023-01-28T22:40:09;0.50;99.90
33811;DHT22;20119;48.334;16.206;2023-01-28T22:45:12;0.50;99.90
33811;DHT22;20119;48.334;16.206;2023-01-28T22:47:39;0.50;99.90
33811;DHT22;20119;48.334;16.206;2023-01-28T22:50:09;0.50;99.90
33811;DHT22;20119;48.334;16.206;2023-01-28T22:52:36;0.50;99.90
33811;DHT22;20119;48.334;16.206;2023-01-28T22:57:55;0.50;99.90
33811;DHT22;20119;48.334;16.206;2023-01-28T23:02:57;0.50;99.90
33811;DHT22;20119;48.334;16.206;2023-01-28T23:05:25;0.50;99.90
33811;DHT22;20119;48.334;16.206;2023-01-28T23:07:55;0.40;99.90
33811;DHT22;20119;48.334;16.206;2023-01-28T23:18:17;0.40;99.90